Ninety Six, South Carolina
Current Conditions -  °F | °C
As of 1:56 AM on Saturday 01 Nov 2014 (Local Time) from KGRD Reporting Station
Light Rain Light Rain  
Wind Chill: 45°   Ceiling: 4000
Heat Index: 48°   Visibility: 10mi
Dew Point: 42°   Wind: 7mph
Humidity: 80%   Direction: 280°W
Pressure: 29.78"   Gusts: NA
Location:  34.18°N, 82.02°W
Report Text: KGRD 010556Z AUTO 28006KT 10SM -RA OVC040 09/06 A2978 RMK AO2 RAB32 SLP081 P0000 60000 T00890056 10144 20089 58010
Loading
Personal Weather Stations






























Interactive Weather Map
Tropical Storm Tracking
New forecast layout! Learn more

10-Day Weather Forecast

Advertisements
Track Severe Weather on mobile